Time;durP1;ratioP1;P1;durP2;ratioP2;P2;SDS_P1;SDS_P2;PMS_P1;PMS_P2;Temp;Humidity;BMP_temperature;BMP_pressure;BME280_temperature;BME280_humidity;BME280_pressure;Samples;Min_cycle;Max_cycle;Signal;HPM_P1;HPM_P2
2022/01/18 00:01:42;;;;;;;5.18;2.63;;;;;;;2.10;73.65;95566.59;5090902;28;20031;-75
2022/01/18 00:04:08;;;;;;;3.47;2.70;;;;;;;2.09;73.01;95562.25;5107267;28;20042;-76
2022/01/18 00:06:33;;;;;;;3.20;2.38;;;;;;;2.12;72.72;95576.19;5088251;28;20043;-75
2022/01/18 00:08:59;;;;;;;2.97;2.33;;;;;;;2.14;72.63;95580.41;5090010;28;20039;-76
2022/01/18 00:11:27;;;;;;;5.18;3.28;;;;;;;2.09;72.83;95591.38;5106673;28;20031;-76
2022/01/18 00:14:03;;;;;;;4.07;2.88;;;;;;;2.22;72.75;95590.41;5107263;28;20027;-77
2022/01/18 00:18:54;;;;;;;4.10;2.90;;;;;;;2.13;71.78;95615.75;5107687;28;20034;-76
2022/01/18 00:21:28;;;;;;;3.72;2.95;;;;;;;2.15;71.77;95600.63;5090147;28;20100;-77
2022/01/18 00:23:57;;;;;;;4.38;3.22;;;;;;;2.17;71.75;95611.09;5106042;28;20024;-76
2022/01/18 00:26:25;;;;;;;4.90;3.35;;;;;;;2.10;70.93;95600.97;5091405;28;20110;-77
2022/01/18 00:28:56;;;;;;;5.20;3.78;;;;;;;2.18;71.03;95610.09;5089120;28;20031;-77
2022/01/18 00:34:04;;;;;;;5.47;3.90;;;;;;;2.15;70.77;95595.31;5105931;28;20048;-77
2022/01/18 00:36:52;;;;;;;6.03;4.10;;;;;;;2.15;70.23;95595.31;5106498;28;20102;-76
2022/01/18 00:39:17;;;;;;;6.85;4.32;;;;;;;2.20;70.21;95589.66;5092826;28;20445;-77
2022/01/18 00:41:42;;;;;;;5.03;4.00;;;;;;;2.16;69.73;95586.41;5088711;28;20083;-79
2022/01/18 00:44:08;;;;;;;4.82;3.92;;;;;;;2.03;70.15;95606.88;5090020;28;20031;-77
2022/01/18 00:46:34;;;;;;;5.28;3.67;;;;;;;2.09;69.31;95631.06;5106502;28;20024;-79
2022/01/18 00:49:01;;;;;;;5.38;3.78;;;;;;;2.02;69.33;95619.25;5108309;28;20051;-78
2022/01/18 00:51:33;;;;;;;5.90;4.00;;;;;;;2.01;69.31;95633.44;5089188;28;20093;-76
2022/01/18 00:54:00;;;;;;;5.85;3.95;;;;;;;2.05;69.29;95684.31;5105183;28;20039;-77
2022/01/18 00:56:28;;;;;;;6.03;4.10;;;;;;;2.09;68.92;95660.16;5108034;28;20028;-77
2022/01/18 00:58:54;;;;;;;7.75;4.60;;;;;;;2.15;69.28;95671.22;5104966;28;20418;-77
2022/01/18 01:01:21;;;;;;;7.22;4.28;;;;;;;2.19;69.38;95699.97;5108058;28;20031;-77
2022/01/18 01:03:47;;;;;;;7.63;4.50;;;;;;;2.22;70.18;95685.69;5105217;28;20031;-77
2022/01/18 01:06:12;;;;;;;6.05;4.35;;;;;;;2.15;71.38;95666.78;5089466;28;20402;-77
2022/01/18 01:08:38;;;;;;;5.93;4.35;;;;;;;2.05;72.20;95697.53;5085194;28;20050;-77
2022/01/18 01:11:04;;;;;;;6.68;4.40;;;;;;;1.94;73.69;95693.06;5086136;28;20044;-78
2022/01/18 01:13:30;;;;;;;6.70;4.50;;;;;;;1.80;75.33;95705.56;5069525;28;20028;-79
2022/01/18 01:16:10;;;;;;;6.85;4.50;;;;;;;1.76;75.82;95722.59;5086244;28;20058;-78
2022/01/18 01:34:49;;;;;;;3.58;2.25;;;;;;;1.31;75.75;95763.75;5090870;28;20123;-78
2022/01/18 01:45:05;;;;;;;3.40;2.45;;;;;;;1.35;75.88;95770.50;5111236;28;20126;-78
2022/01/18 01:47:35;;;;;;;3.17;2.53;;;;;;;1.37;76.59;95785.41;5108094;28;20024;-78
2022/01/18 01:50:06;;;;;;;4.18;2.83;;;;;;;1.20;77.35;95790.97;5109805;28;20060;-78
2022/01/18 01:52:32;;;;;;;5.65;3.03;;;;;;;1.28;77.11;95785.13;5108976;28;20032;-78
2022/01/18 01:54:58;;;;;;;4.22;3.25;;;;;;;1.25;77.08;95793.25;5107462;28;20028;-78
2022/01/18 01:57:23;;;;;;;5.95;3.45;;;;;;;1.15;76.91;95789.59;5109356;28;20038;-78
2022/01/18 01:59:49;;;;;;;6.00;4.22;;;;;;;1.28;75.74;95795.69;5107390;28;20020;-77
2022/01/18 02:02:14;;;;;;;5.88;4.10;;;;;;;1.26;75.59;95805.50;5108635;28;20093;-78
2022/01/18 02:04:40;;;;;;;6.15;4.10;;;;;;;1.15;74.56;95790.44;5090622;28;20084;-78
2022/01/18 02:07:05;;;;;;;5.40;3.72;;;;;;;1.21;73.33;95800.56;5108296;28;20027;-77
2022/01/18 02:09:31;;;;;;;4.72;3.00;;;;;;;1.13;70.71;95787.06;5109484;28;20497;-78
2022/01/18 02:11:57;;;;;;;4.85;3.15;;;;;;;1.20;70.10;95793.59;5090407;28;20789;-77
2022/01/18 02:14:24;;;;;;;5.75;2.75;;;;;;;1.21;68.50;95790.00;5108563;28;20067;-78
2022/01/18 02:22:18;;;;;;;5.40;2.97;;;;;;;0.91;65.54;95819.44;5109321;28;20038;-77
2022/01/18 02:24:43;;;;;;;6.50;2.85;;;;;;;0.94;64.70;95833.28;5073605;28;20019;-77
2022/01/18 02:27:09;;;;;;;3.83;2.40;;;;;;;0.82;63.23;95844.69;5108646;28;20036;-77
2022/01/18 02:29:34;;;;;;;5.32;2.47;;;;;;;0.76;62.78;95843.31;5089954;28;20031;-76
2022/01/18 02:31:59;;;;;;;3.45;2.40;;;;;;;0.75;62.33;95857.47;5107746;28;20673;-78
2022/01/18 02:34:25;;;;;;;5.15;2.28;;;;;;;0.78;61.98;95856.41;5106287;28;20039;-78
2022/01/18 02:36:53;;;;;;;5.57;2.10;;;;;;;0.75;61.26;95857.47;5108687;28;20035;-77
2022/01/18 02:39:20;;;;;;;3.33;2.40;;;;;;;0.55;61.15;95857.03;5107781;28;20023;-78
2022/01/18 02:41:54;;;;;;;5.15;2.10;;;;;;;0.58;59.79;95867.38;5108273;28;20474;-77
2022/01/18 02:44:20;;;;;;;2.75;1.92;;;;;;;0.54;60.34;95876.47;5108897;28;20031;-78
2022/01/18 02:46:45;;;;;;;2.00;1.60;;;;;;;0.48;59.88;95890.91;5108697;28;20485;-77
2022/01/18 02:49:11;;;;;;;3.33;1.73;;;;;;;0.21;59.42;95901.53;5091749;28;20028;-77
2022/01/18 02:51:36;;;;;;;2.55;1.88;;;;;;;0.18;59.62;95904.38;5106786;28;20032;-77
2022/01/18 02:54:06;;;;;;;2.95;2.13;;;;;;;0.05;60.10;95918.34;5108611;28;20020;-76
2022/01/18 02:56:35;;;;;;;3.35;1.95;;;;;;;-0.04;59.41;95918.94;5107903;28;20027;-77
2022/01/18 02:59:14;;;;;;;4.90;2.00;;;;;;;0.01;58.76;95926.56;5109265;28;20034;-77
2022/01/18 03:04:24;;;;;;;3.20;2.05;;;;;;;-0.25;58.40;95927.28;5107630;28;20501;-78
2022/01/18 03:06:49;;;;;;;2.35;1.80;;;;;;;-0.24;58.34;95928.16;5108180;28;20028;-76
2022/01/18 03:09:14;;;;;;;3.45;1.95;;;;;;;-0.28;57.84;95938.03;5106221;28;20406;-77
2022/01/18 03:11:40;;;;;;;2.92;1.83;;;;;;;-0.34;57.63;95949.84;5108064;28;20096;-78
2022/01/18 03:14:05;;;;;;;2.85;1.90;;;;;;;-0.37;57.34;95944.72;5108135;28;20024;-77
2022/01/18 03:16:31;;;;;;;3.45;2.00;;;;;;;-0.42;57.47;95945.00;5090062;28;20084;-77
2022/01/18 03:18:56;;;;;;;2.63;1.90;;;;;;;-0.61;57.97;95949.75;5090451;28;20027;-77
2022/01/18 03:21:22;;;;;;;3.20;1.90;;;;;;;-0.60;58.04;95948.81;5107088;28;20076;-76
2022/01/18 03:23:52;;;;;;;4.18;2.20;;;;;;;-0.50;58.26;95956.03;5107962;28;20032;-77
2022/01/18 03:26:18;;;;;;;2.50;1.80;;;;;;;-0.44;57.23;95968.00;5106010;28;20585;-78
2022/01/18 03:28:44;;;;;;;3.38;2.33;;;;;;;-0.67;56.93;95986.06;5087409;28;20039;-78
2022/01/18 03:31:09;;;;;;;3.38;2.50;;;;;;;-0.84;57.15;95957.28;5068928;28;20040;-78
2022/01/18 03:33:35;;;;;;;2.50;1.88;;;;;;;-0.80;57.33;95964.03;5086990;28;20048;-77
2022/01/18 03:36:01;;;;;;;4.03;2.00;;;;;;;-0.83;57.32;95959.81;5069801;28;20395;-78
2022/01/18 03:38:29;;;;;;;4.15;2.30;;;;;;;-0.93;57.87;95959.53;5086665;28;20107;-77
2022/01/18 03:40:57;;;;;;;4.03;2.25;;;;;;;-1.03;58.32;95947.88;5087536;28;20458;-78
2022/01/18 03:43:22;;;;;;;3.90;2.05;;;;;;;-1.06;58.88;95937.50;5098640;28;20430;-77
2022/01/18 03:45:48;;;;;;;4.28;2.20;;;;;;;-0.97;58.05;95936.09;5090689;28;20027;-76
2022/01/18 03:48:27;;;;;;;4.00;2.30;;;;;;;-0.92;58.14;95934.88;5107506;28;20424;-77
2022/01/18 03:50:53;;;;;;;4.78;2.20;;;;;;;-0.92;57.97;95945.41;5108738;28;20494;-78
2022/01/18 03:53:20;;;;;;;3.58;1.95;;;;;;;-1.00;57.99;95947.69;5106409;28;20034;-77
2022/01/18 03:55:46;;;;;;;3.20;1.83;;;;;;;-1.03;58.21;95959.22;5106105;28;20065;-77
2022/01/18 03:58:11;;;;;;;4.22;2.15;;;;;;;-1.05;58.25;95945.31;5089319;28;20044;-77
2022/01/18 04:00:37;;;;;;;6.53;2.30;;;;;;;-1.15;58.30;95950.31;5105136;28;20050;-77
2022/01/18 04:03:02;;;;;;;3.10;2.03;;;;;;;-1.10;58.44;95949.16;5108485;28;20047;-78
2022/01/18 04:05:27;;;;;;;4.50;2.28;;;;;;;-1.15;58.07;95937.13;5106079;28;20031;-77
2022/01/18 04:07:53;;;;;;;3.58;2.17;;;;;;;-1.16;57.31;95953.03;5108550;28;20032;-76
2022/01/18 04:10:18;;;;;;;2.83;2.30;;;;;;;-1.12;57.56;95946.63;5088505;28;20023;-78
2022/01/18 04:12:44;;;;;;;3.38;2.20;;;;;;;-1.17;57.54;95952.16;5105561;28;20028;-77
2022/01/18 04:15:13;;;;;;;6.57;2.85;;;;;;;-1.12;57.73;95978.22;5106610;28;20019;-77
2022/01/18 04:25:54;;;;;;;4.70;2.17;;;;;;;-1.15;57.11;96008.22;5086923;28;20035;-78
2022/01/18 04:31:14;;;;;;;5.18;2.38;;;;;;;-1.10;56.67;96015.84;5065534;28;20085;-78
2022/01/18 04:33:39;;;;;;;4.38;1.98;;;;;;;-1.09;56.26;96032.47;5106918;28;20036;-77
2022/01/18 04:36:06;;;;;;;4.32;2.10;;;;;;;-1.12;56.61;96029.09;5104543;28;20040;-77
2022/01/18 04:38:31;;;;;;;3.55;2.20;;;;;;;-1.05;56.08;96044.53;5105105;28;20099;-77
2022/01/18 04:41:05;;;;;;;3.20;1.92;;;;;;;-1.04;56.20;96048.84;5106703;28;20374;-77
2022/01/18 04:48:55;;;;;;;4.03;2.45;;;;;;;-1.01;55.78;96067.97;5105012;28;20035;-78
2022/01/18 04:51:20;;;;;;;4.05;2.30;;;;;;;-1.00;56.16;96069.66;5106764;28;20046;-78
2022/01/18 04:53:52;;;;;;;5.47;2.65;;;;;;;-0.96;55.79;96074.72;5107138;28;20020;-78
2022/01/18 04:56:27;;;;;;;4.88;3.03;;;;;;;-0.98;56.28;96082.72;5092928;28;20035;-77
2022/01/18 04:58:52;;;;;;;3.85;2.53;;;;;;;-1.02;55.71;96089.13;5110161;28;20042;-77
2022/01/18 05:01:17;;;;;;;3.63;2.38;;;;;;;-1.09;55.48;96067.56;5108751;28;20389;-77
2022/01/18 05:03:43;;;;;;;5.43;3.22;;;;;;;-1.16;55.79;96067.06;5076677;28;20175;-78
2022/01/18 05:06:12;;;;;;;3.08;1.88;;;;;;;-1.21;56.77;96070.91;5108634;28;20080;-78
2022/01/18 05:08:37;;;;;;;4.50;2.30;;;;;;;-1.32;57.43;96074.16;5111021;28;20084;-77
2022/01/18 05:11:03;;;;;;;4.15;2.22;;;;;;;-1.32;57.74;96076.78;5087971;28;20040;-78
2022/01/18 05:23:32;;;;;;;5.13;2.65;;;;;;;-1.02;56.99;96133.88;5089784;28;20055;-76
2022/01/18 05:25:57;;;;;;;4.63;2.75;;;;;;;-1.02;56.85;96131.25;5111275;28;20398;-77
2022/01/18 05:28:23;;;;;;;4.97;2.60;;;;;;;-0.91;56.55;96143.78;5108865;28;20016;-77
2022/01/18 05:30:48;;;;;;;5.10;2.78;;;;;;;-0.94;56.74;96157.13;5108170;28;20527;-78
2022/01/18 05:33:14;;;;;;;3.72;2.15;;;;;;;-0.91;56.26;96157.81;5110264;28;20467;-77
2022/01/18 05:35:39;;;;;;;8.40;3.05;;;;;;;-0.92;56.71;96158.72;5105871;28;20031;-78
2022/01/18 05:38:06;;;;;;;7.95;3.30;;;;;;;-1.00;56.58;96166.25;5090049;28;20555;-78
2022/01/18 05:40:32;;;;;;;3.35;2.42;;;;;;;-0.96;56.80;96159.00;5103161;28;20485;-77
2022/01/18 05:42:58;;;;;;;4.00;2.90;;;;;;;-1.04;56.69;96167.34;5091973;28;20024;-79
2022/01/18 05:45:23;;;;;;;4.63;2.60;;;;;;;-1.02;57.28;96173.38;5107441;28;20016;-78
2022/01/18 05:47:50;;;;;;;5.43;2.92;;;;;;;-1.07;57.85;96175.41;5084692;28;20030;-81
2022/01/18 05:50:15;;;;;;;3.95;2.50;;;;;;;-1.08;57.81;96174.56;5088874;28;20492;-81
2022/01/18 05:52:41;;;;;;;4.30;2.70;;;;;;;-1.09;57.88;96177.28;5107070;28;20024;-82
2022/01/18 05:55:07;;;;;;;4.65;2.70;;;;;;;-1.12;58.52;96187.06;5090233;28;20040;-79
2022/01/18 05:57:32;;;;;;;4.40;2.63;;;;;;;-1.08;58.63;96182.47;5103704;28;20035;-79
2022/01/18 06:00:04;;;;;;;6.35;2.80;;;;;;;-1.06;58.17;96201.66;5108659;28;20019;-80
2022/01/18 06:07:59;;;;;;;3.95;2.70;;;;;;;-0.79;57.33;96216.84;5061766;28;20064;-79
2022/01/18 06:10:25;;;;;;;4.60;2.95;;;;;;;-0.98;57.33;96230.19;5096986;28;20028;-78
2022/01/18 06:12:51;;;;;;;4.97;2.60;;;;;;;-0.77;57.71;96224.66;5100287;28;20542;-78
2022/01/18 06:15:16;;;;;;;5.03;3.03;;;;;;;-0.70;57.55;96233.06;5077385;28;20032;-78
2022/01/18 06:17:43;;;;;;;5.43;2.85;;;;;;;-0.55;57.13;96232.16;5089589;28;20110;-78
2022/01/18 06:20:09;;;;;;;4.35;3.17;;;;;;;-0.48;56.82;96248.50;5088824;28;20047;-77
2022/01/18 06:22:35;;;;;;;5.45;3.60;;;;;;;-0.27;55.70;96253.44;5071353;28;20520;-78
2022/01/18 06:25:00;;;;;;;7.90;3.85;;;;;;;-0.07;54.96;96272.53;5087695;28;20486;-77
2022/01/18 06:27:25;;;;;;;7.63;3.83;;;;;;;-0.04;55.45;96264.44;5088288;28;20031;-77
2022/01/18 06:29:52;;;;;;;6.65;4.20;;;;;;;-0.03;55.71;96269.63;5054095;28;20459;-77
2022/01/18 06:32:17;;;;;;;6.85;3.90;;;;;;;0.03;55.32;96279.00;5086542;28;20032;-78
2022/01/18 06:34:43;;;;;;;7.35;4.15;;;;;;;0.19;55.35;96278.06;5087682;28;20087;-78
2022/01/18 06:37:09;;;;;;;9.05;4.60;;;;;;;0.26;54.53;96281.19;5086364;28;20020;-78
2022/01/18 06:39:34;;;;;;;9.48;4.82;;;;;;;0.35;53.73;96283.28;5088872;28;20062;-78
2022/01/18 06:42:00;;;;;;;11.07;5.32;;;;;;;0.39;54.41;96283.94;5086744;28;20031;-78
2022/01/18 06:44:25;;;;;;;9.27;5.22;;;;;;;0.55;52.93;96291.78;5086942;28;20031;-78
2022/01/18 06:46:52;;;;;;;11.95;5.60;;;;;;;0.55;53.34;96279.41;5088528;28;20027;-79
2022/01/18 06:49:17;;;;;;;12.10;5.93;;;;;;;0.70;54.02;96284.69;5069586;28;20031;-78
2022/01/18 06:51:43;;;;;;;15.80;6.88;;;;;;;0.75;53.67;96285.25;5087688;28;20028;-78
2022/01/18 06:54:14;;;;;;;12.35;6.15;;;;;;;0.92;52.69;96291.31;5087364;28;20470;-78
2022/01/18 06:56:43;;;;;;;11.50;5.28;;;;;;;1.01;52.62;96288.06;5087135;28;20515;-78
2022/01/18 06:59:09;;;;;;;10.15;4.88;;;;;;;1.05;52.77;96286.94;5086279;28;20024;-77
2022/01/18 07:01:34;;;;;;;10.05;4.93;;;;;;;1.20;52.85;96295.69;5069898;28;20422;-79
2022/01/18 07:03:59;;;;;;;11.57;5.15;;;;;;;1.33;52.15;96301.03;5086641;28;20028;-79
2022/01/18 07:06:25;;;;;;;7.78;4.05;;;;;;;1.46;51.72;96302.91;5069183;28;20380;-79
2022/01/18 07:08:50;;;;;;;7.70;4.05;;;;;;;1.39;51.86;96302.44;5086951;28;20024;-77
2022/01/18 07:11:16;;;;;;;8.90;4.03;;;;;;;1.57;51.84;96318.06;5085223;28;20028;-78
2022/01/18 07:13:42;;;;;;;6.20;3.97;;;;;;;1.65;51.28;96321.06;5087296;28;20043;-78
2022/01/18 07:16:07;;;;;;;7.68;4.18;;;;;;;1.74;51.56;96319.63;5068721;28;20434;-78
2022/01/18 07:18:33;;;;;;;7.25;3.30;;;;;;;1.84;51.17;96331.28;5086714;28;20024;-78
2022/01/18 07:20:58;;;;;;;5.57;3.65;;;;;;;2.01;50.35;96337.28;5085760;28;20097;-79
2022/01/18 07:23:24;;;;;;;6.25;4.13;;;;;;;1.93;50.76;96347.50;5086039;28;20020;-78
2022/01/18 07:25:49;;;;;;;5.75;3.80;;;;;;;1.95;50.55;96354.38;5087964;28;20047;-79
2022/01/18 07:28:17;;;;;;;6.28;3.15;;;;;;;1.79;50.59;96353.72;5086457;28;20028;-78
2022/01/18 07:30:42;;;;;;;4.47;3.50;;;;;;;1.96;50.21;96355.25;5088196;28;20028;-80
2022/01/18 07:33:08;;;;;;;7.68;3.53;;;;;;;1.97;51.20;96363.09;5084742;28;20406;-77
2022/01/18 07:35:35;;;;;;;4.97;3.42;;;;;;;2.10;50.90;96357.84;5086709;28;20074;-78
2022/01/18 07:38:03;;;;;;;3.83;3.03;;;;;;;2.29;50.85;96361.91;5085525;28;20032;-78
2022/01/18 07:40:29;;;;;;;4.35;2.90;;;;;;;2.29;50.04;96361.06;5069232;28;20111;-78
2022/01/18 07:42:55;;;;;;;4.82;2.97;;;;;;;2.19;50.32;96359.00;5086169;28;20082;-79
2022/01/18 07:45:21;;;;;;;5.07;3.20;;;;;;;2.24;50.77;96358.72;5051795;28;20714;-78
2022/01/18 07:47:47;;;;;;;4.57;3.15;;;;;;;2.11;50.49;96369.28;5069601;28;20038;-79
2022/01/18 07:50:12;;;;;;;5.63;3.40;;;;;;;2.02;50.46;96364.56;5084487;28;20028;-78
2022/01/18 07:52:38;;;;;;;6.05;3.75;;;;;;;2.39;49.93;96371.88;5052681;28;20046;-77
2022/01/18 07:55:04;;;;;;;6.28;3.70;;;;;;;2.03;51.30;96380.34;5085002;28;20024;-78
2022/01/18 07:57:29;;;;;;;5.03;3.42;;;;;;;2.10;51.11;96372.84;5102546;28;20028;-77
2022/01/18 07:59:55;;;;;;;10.75;3.70;;;;;;;2.29;50.79;96375.13;5085290;28;20032;-78
2022/01/18 08:02:20;;;;;;;6.32;3.45;;;;;;;2.37;50.26;96373.78;5085102;28;20043;-77
2022/01/18 08:04:45;;;;;;;4.10;2.90;;;;;;;2.22;50.85;96377.34;5068843;28;20383;-79
2022/01/18 08:07:11;;;;;;;4.97;2.97;;;;;;;2.49;49.91;96372.97;5085729;28;20077;-79
2022/01/18 08:09:36;;;;;;;4.47;3.05;;;;;;;2.50;50.42;96374.66;5087524;28;20054;-77
2022/01/18 08:12:03;;;;;;;4.63;2.85;;;;;;;2.42;50.18;96374.34;5084246;28;20028;-77
2022/01/18 08:14:31;;;;;;;4.75;3.22;;;;;;;2.14;51.07;96384.97;5085596;28;20474;-78
2022/01/18 08:17:00;;;;;;;6.32;3.10;;;;;;;2.14;50.27;96389.41;5086419;28;20052;-78
2022/01/18 08:19:29;;;;;;;6.30;3.40;;;;;;;2.14;51.77;96406.13;5086746;28;20032;-78
2022/01/18 08:21:55;;;;;;;7.18;3.58;;;;;;;2.34;51.09;96386.28;5069270;28;20077;-78
2022/01/18 08:24:20;;;;;;;6.07;3.58;;;;;;;2.57;49.77;96402.44;5068091;28;20028;-78
2022/01/18 08:26:46;;;;;;;5.70;3.40;;;;;;;2.66;49.63;96400.13;5085840;28;20071;-78
2022/01/18 08:29:12;;;;;;;4.95;3.30;;;;;;;2.70;49.30;96404.25;5084943;28;20084;-78
2022/01/18 08:31:38;;;;;;;7.78;2.75;;;;;;;2.54;49.47;96402.63;5086848;28;20411;-77
2022/01/18 08:34:04;;;;;;;3.13;2.58;;;;;;;2.45;48.71;96409.38;5067268;28;20048;-78
2022/01/18 08:36:29;;;;;;;4.47;2.88;;;;;;;2.09;50.25;96413.53;5085236;28;20035;-78
2022/01/18 08:38:54;;;;;;;3.08;2.40;;;;;;;1.68;49.55;96418.72;5068109;28;20055;-78
2022/01/18 08:41:20;;;;;;;4.53;3.00;;;;;;;1.66;49.74;96417.13;5051337;28;20028;-78
2022/01/18 08:43:46;;;;;;;5.78;3.03;;;;;;;1.70;50.09;96434.50;5068517;28;20032;-77
2022/01/18 08:46:11;;;;;;;5.63;2.90;;;;;;;1.87;50.60;96422.00;5084146;28;20032;-78
2022/01/18 08:48:37;;;;;;;7.13;3.22;;;;;;;1.94;49.45;96421.50;5085307;28;20040;-76
2022/01/18 08:51:03;;;;;;;5.13;2.95;;;;;;;1.81;50.17;96421.44;5067183;28;20031;-78
2022/01/18 08:53:28;;;;;;;6.00;3.42;;;;;;;1.88;49.81;96431.63;5086443;28;20020;-77
2022/01/18 08:55:54;;;;;;;5.05;3.10;;;;;;;1.90;49.97;96424.44;5084249;28;20024;-78
2022/01/18 08:58:21;;;;;;;4.43;2.97;;;;;;;1.87;50.34;96403.47;5084922;28;20483;-77
2022/01/18 09:00:47;;;;;;;5.13;3.10;;;;;;;1.72;49.25;96400.88;5084599;28;20521;-79
2022/01/18 09:03:12;;;;;;;5.43;2.92;;;;;;;1.72;50.34;96395.56;5084402;28;20024;-78
2022/01/18 09:05:38;;;;;;;3.95;2.83;;;;;;;1.80;50.69;96388.00;5085264;28;20024;-79
2022/01/18 09:08:07;;;;;;;4.80;3.47;;;;;;;1.82;50.47;96374.69;5084186;28;20020;-78
2022/01/18 09:10:33;;;;;;;6.78;3.45;;;;;;;1.77;50.38;96382.06;5085595;28;20109;-79
2022/01/18 09:12:58;;;;;;;4.05;2.90;;;;;;;1.75;50.93;96387.44;5085254;28;20397;-77
2022/01/18 09:15:25;;;;;;;6.47;2.92;;;;;;;1.71;51.00;96388.56;5068189;28;20012;-78
2022/01/18 09:17:51;;;;;;;4.53;3.08;;;;;;;1.67;51.14;96373.84;5084150;28;20572;-78
2022/01/18 09:20:16;;;;;;;5.80;3.10;;;;;;;1.75;51.33;96376.00;5067624;28;20043;-78
2022/01/18 09:22:43;;;;;;;5.55;2.90;;;;;;;1.71;51.05;96354.19;5068032;28;20445;-78
2022/01/18 09:25:15;;;;;;;4.72;2.90;;;;;;;1.71;50.71;96399.16;5083855;28;20012;-79
2022/01/18 09:27:41;;;;;;;4.88;2.75;;;;;;;1.58;51.08;96386.72;5085039;28;20063;-78
2022/01/18 09:30:07;;;;;;;4.75;3.15;;;;;;;1.53;52.55;96385.31;5083964;28;20110;-77
2022/01/18 09:32:32;;;;;;;6.55;2.80;;;;;;;1.62;51.67;96394.44;5067993;28;20051;-78
2022/01/18 09:34:58;;;;;;;5.20;2.85;;;;;;;1.69;51.93;96387.84;5085352;28;20055;-77
2022/01/18 09:37:23;;;;;;;4.75;3.20;;;;;;;1.78;52.21;96383.75;5067895;28;20024;-77
2022/01/18 09:39:49;;;;;;;5.53;3.10;;;;;;;1.73;52.50;96403.41;5067845;28;20047;-77
2022/01/18 09:42:14;;;;;;;4.05;3.20;;;;;;;1.59;51.48;96395.50;5070934;28;20025;-79
2022/01/18 09:44:40;;;;;;;5.57;3.00;;;;;;;1.45;50.77;96406.97;5088633;28;20028;-77
2022/01/18 09:47:05;;;;;;;3.17;2.63;;;;;;;1.62;50.01;96394.44;5087278;28;20016;-79
2022/01/18 09:49:34;;;;;;;4.85;2.95;;;;;;;1.57;50.33;96411.47;5090212;28;20121;-79
2022/01/18 09:51:59;;;;;;;8.65;3.17;;;;;;;1.30;50.75;96411.41;5087086;28;20024;-79
2022/01/18 09:54:25;;;;;;;6.65;3.03;;;;;;;1.01;52.15;96419.31;5071294;28;20115;-78
2022/01/18 09:56:50;;;;;;;5.05;3.28;;;;;;;1.00;52.44;96410.53;5087423;28;20107;-79
2022/01/18 09:59:16;;;;;;;5.05;3.08;;;;;;;1.05;52.50;96407.63;5070759;28;20547;-78
2022/01/18 10:01:42;;;;;;;6.10;3.33;;;;;;;1.05;53.28;96419.03;5089508;28;20441;-78
2022/01/18 10:04:20;;;;;;;7.28;3.30;;;;;;;1.14;52.94;96412.34;5088577;28;20036;-78
2022/01/18 10:06:47;;;;;;;6.47;3.38;;;;;;;1.21;52.72;96410.19;5089582;28;20028;-78
2022/01/18 10:09:13;;;;;;;3.78;3.00;;;;;;;1.09;52.22;96401.22;5088166;28;20089;-78
2022/01/18 10:12:07;;;;;;;4.05;3.10;;;;;;;1.10;52.08;96416.97;5089041;28;20028;-80
2022/01/18 10:14:33;;;;;;;4.50;3.17;;;;;;;0.93;53.04;96399.50;5104767;28;20557;-77
2022/01/18 10:16:58;;;;;;;7.50;3.53;;;;;;;0.99;52.88;96411.50;5086534;28;20101;-77
2022/01/18 10:19:40;;;;;;;5.22;3.28;;;;;;;1.04;53.89;96392.72;5089516;28;20054;-78
2022/01/18 10:22:20;;;;;;;6.45;2.92;;;;;;;1.06;52.65;96393.47;5071383;28;20034;-79
2022/01/18 10:24:46;;;;;;;6.30;3.63;;;;;;;1.06;52.64;96385.53;5088702;28;20448;-77
2022/01/18 10:27:13;;;;;;;5.18;3.25;;;;;;;1.05;53.71;96382.03;5087256;28;20482;-79
2022/01/18 10:29:46;;;;;;;9.23;3.10;;;;;;;1.15;53.48;96381.47;5087965;28;20093;-77
2022/01/18 10:32:19;;;;;;;4.95;3.45;;;;;;;1.17;53.62;96387.53;5087940;28;20035;-78
2022/01/18 10:37:21;;;;;;;4.50;3.00;;;;;;;1.15;52.70;96389.41;5072016;28;20537;-78
2022/01/18 10:39:50;;;;;;;6.15;2.90;;;;;;;1.05;51.00;96368.84;5086638;28;20024;-78
2022/01/18 10:42:25;;;;;;;5.13;3.45;;;;;;;0.94;52.26;96360.72;5088435;28;20028;-78
2022/01/18 10:45:27;;;;;;;5.13;3.22;;;;;;;1.06;52.39;96364.41;5087606;28;20104;-77
2022/01/18 10:48:10;;;;;;;5.32;3.45;;;;;;;1.13;52.88;96378.94;5087216;28;20069;-79
2022/01/18 10:50:38;;;;;;;6.25;3.35;;;;;;;1.17;52.25;96369.88;5088524;28;20046;-78
2022/01/18 10:53:23;;;;;;;5.47;3.55;;;;;;;1.17;52.23;96377.81;5069879;28;20028;-78
2022/01/18 10:55:50;;;;;;;6.25;3.30;;;;;;;1.18;51.57;96366.28;5086317;28;20498;-79
2022/01/18 10:58:18;;;;;;;9.43;3.50;;;;;;;1.10;52.28;96392.31;5070897;28;20414;-78
2022/01/18 11:00:44;;;;;;;5.60;3.35;;;;;;;1.09;52.51;96385.34;5069585;28;20104;-77
2022/01/18 11:03:10;;;;;;;8.45;3.85;;;;;;;1.15;51.30;96357.69;5086906;28;20111;-78
2022/01/18 11:05:37;;;;;;;6.47;3.22;;;;;;;1.11;51.36;96365.81;5069589;28;20028;-78
2022/01/18 11:08:04;;;;;;;4.90;3.30;;;;;;;1.27;51.99;96367.53;5088299;28;20508;-80
2022/01/18 11:10:37;;;;;;;4.03;2.83;;;;;;;1.20;50.60;96366.19;5088150;28;20035;-78
2022/01/18 11:13:06;;;;;;;5.70;3.10;;;;;;;1.14;51.76;96333.06;5087134;28;20024;-78
2022/01/18 11:15:33;;;;;;;6.75;3.08;;;;;;;1.21;51.02;96354.69;5070690;28;20024;-78
2022/01/18 11:18:01;;;;;;;5.13;3.05;;;;;;;1.23;50.71;96347.50;5068706;28;20112;-78
2022/01/18 11:20:32;;;;;;;5.78;3.65;;;;;;;1.20;50.31;96351.19;5088260;28;20032;-77
2022/01/18 11:22:57;;;;;;;10.23;3.08;;;;;;;1.11;50.33;96341.19;5085987;28;20020;-78
2022/01/18 11:25:23;;;;;;;7.90;3.75;;;;;;;1.19;50.42;96353.94;5086054;28;20024;-77
2022/01/18 11:27:50;;;;;;;6.82;3.40;;;;;;;1.17;49.72;96359.31;5086144;28;20042;-77
2022/01/18 11:30:16;;;;;;;5.60;3.15;;;;;;;1.22;49.85;96359.03;5085770;28;20024;-79
2022/01/18 11:32:42;;;;;;;4.72;3.50;;;;;;;1.33;49.93;96364.47;5086881;28;20482;-81
2022/01/18 11:35:15;;;;;;;5.88;3.08;;;;;;;1.43;49.54;96358.63;5084678;28;20059;-79
2022/01/18 11:38:09;;;;;;;5.25;3.47;;;;;;;1.51;48.46;96369.56;5086693;28;20501;-82
2022/01/18 11:40:45;;;;;;;4.78;3.25;;;;;;;1.61;49.41;96372.47;5068685;28;20036;-78
2022/01/18 11:43:11;;;;;;;6.00;3.08;;;;;;;1.58;47.89;96388.53;5085326;28;20043;-78
2022/01/18 11:45:39;;;;;;;6.00;3.70;;;;;;;1.61;47.99;96393.63;5069356;28;20028;-78
2022/01/18 11:48:18;;;;;;;5.95;3.10;;;;;;;1.65;48.46;96373.09;5086112;28;20115;-79
2022/01/18 11:50:50;;;;;;;6.05;3.50;;;;;;;1.60;48.03;96366.31;5088117;28;20508;-78
2022/01/18 11:53:37;;;;;;;7.45;3.58;;;;;;;1.73;47.30;96350.50;5085350;28;20109;-79
2022/01/18 11:56:03;;;;;;;4.40;2.95;;;;;;;1.77;46.87;96348.53;5085896;28;20024;-78
2022/01/18 11:58:29;;;;;;;5.15;2.70;;;;;;;1.83;46.69;96353.41;5085902;28;20024;-81
2022/01/18 12:00:57;;;;;;;5.57;2.80;;;;;;;1.80;47.39;96355.41;5085108;28;20020;-78
2022/01/18 12:03:30;;;;;;;5.10;2.88;;;;;;;1.73;47.03;96350.50;5068870;28;20040;-78
2022/01/18 12:05:57;;;;;;;3.80;2.95;;;;;;;1.73;46.00;96368.16;5068846;28;20074;-78
2022/01/18 12:08:37;;;;;;;4.88;2.97;;;;;;;1.81;46.51;96365.03;5069201;28;20027;-77
2022/01/18 12:11:07;;;;;;;6.53;2.95;;;;;;;1.85;46.11;96370.00;5069740;28;20032;-78
2022/01/18 12:13:34;;;;;;;7.63;3.20;;;;;;;1.85;45.76;96369.19;5086047;28;20039;-79
2022/01/18 12:16:11;;;;;;;5.93;2.83;;;;;;;1.73;45.57;96349.66;5086232;28;20493;-78
2022/01/18 12:22:12;;;;;;;3.50;2.53;;;;;;;1.83;45.72;96395.75;5062964;28;20498;-77
2022/01/18 12:24:37;;;;;;;8.13;3.40;;;;;;;1.89;44.66;96380.41;5085705;28;20028;-77
2022/01/18 12:27:29;;;;;;;3.17;2.42;;;;;;;2.05;45.87;96398.78;5086279;28;20117;-79
2022/01/18 12:30:36;;;;;;;3.03;2.45;;;;;;;2.08;44.72;96388.84;5086006;28;20985;-78
2022/01/18 12:33:24;;;;;;;4.82;2.90;;;;;;;2.16;44.51;96353.09;5087388;28;20044;-78
2022/01/18 12:35:49;;;;;;;4.72;3.03;;;;;;;2.13;44.27;96356.78;5086471;28;20582;-80
2022/01/18 12:38:43;;;;;;;5.35;2.92;;;;;;;2.21;44.39;96348.31;5069499;28;20032;-78
2022/01/18 12:41:09;;;;;;;5.95;2.80;;;;;;;2.18;44.14;96351.16;5069014;28;20028;-80
2022/01/18 12:46:18;;;;;;;6.00;3.17;;;;;;;2.27;43.07;96355.88;5087612;28;20111;-80
2022/01/18 12:48:43;;;;;;;3.83;2.58;;;;;;;2.27;42.59;96382.34;5067004;28;20474;-79
2022/01/18 12:51:12;;;;;;;5.15;3.10;;;;;;;2.28;42.52;96378.75;5068746;28;20028;-78
2022/01/18 12:53:39;;;;;;;4.45;2.63;;;;;;;2.33;43.88;96389.88;5086186;28;20054;-79
2022/01/18 12:56:06;;;;;;;5.55;3.00;;;;;;;2.45;44.25;96385.56;5096419;28;20055;-77
2022/01/18 12:58:36;;;;;;;7.28;3.50;;;;;;;2.34;44.33;96407.47;5077114;28;20091;-79
2022/01/18 13:01:05;;;;;;;5.47;3.13;;;;;;;2.10;43.35;96405.47;5075763;28;20417;-77